sensor_id;sensor_type;location;lat;lon;timestamp;pressure;altitude;pressure_sealevel;temperature;humidity
54592;BME280;40488;48.558;18.150;2023-05-22T00:00:10;99563.34;;;16.45;82.52
54592;BME280;40488;48.558;18.150;2023-05-22T00:02:43;99562.66;;;16.38;82.55
54592;BME280;40488;48.558;18.150;2023-05-22T00:05:13;99565.25;;;16.37;82.70
54592;BME280;40488;48.558;18.150;2023-05-22T00:07:45;99564.47;;;16.35;82.36
54592;BME280;40488;48.558;18.150;2023-05-22T00:10:14;99561.81;;;16.38;82.70
54592;BME280;40488;48.558;18.150;2023-05-22T00:12:42;99558.34;;;16.39;82.57
54592;BME280;40488;48.558;18.150;2023-05-22T00:15:12;99549.81;;;16.37;82.17
54592;BME280;40488;48.558;18.150;2023-05-22T00:17:41;99554.97;;;16.37;82.56
54592;BME280;40488;48.558;18.150;2023-05-22T00:20:12;99552.38;;;16.37;82.21
54592;BME280;40488;48.558;18.150;2023-05-22T00:22:41;99561.03;;;16.36;82.29
54592;BME280;40488;48.558;18.150;2023-05-22T00:25:11;99559.38;;;16.33;82.13
54592;BME280;40488;48.558;18.150;2023-05-22T00:27:39;99549.09;;;16.32;82.10
54592;BME280;40488;48.558;18.150;2023-05-22T00:30:09;99551.66;;;16.32;82.43
54592;BME280;40488;48.558;18.150;2023-05-22T00:32:39;99558.59;;;16.30;82.21
54592;BME280;40488;48.558;18.150;2023-05-22T00:35:09;99556.00;;;16.30;81.86
54592;BME280;40488;48.558;18.150;2023-05-22T00:37:39;99548.38;;;16.27;82.27
54592;BME280;40488;48.558;18.150;2023-05-22T00:40:09;99549.31;;;16.24;82.05
54592;BME280;40488;48.558;18.150;2023-05-22T00:42:38;99543.44;;;16.18;82.43
54592;BME280;40488;48.558;18.150;2023-05-22T00:45:09;99548.59;;;16.18;82.22
54592;BME280;40488;48.558;18.150;2023-05-22T00:47:39;99548.72;;;16.13;82.30
54592;BME280;40488;48.558;18.150;2023-05-22T00:50:09;99552.38;;;16.04;82.65
54592;BME280;40488;48.558;18.150;2023-05-22T00:52:42;99540.44;;;16.00;82.47
54592;BME280;40488;48.558;18.150;2023-05-22T00:55:12;99553.41;;;15.97;82.59
54592;BME280;40488;48.558;18.150;2023-05-22T00:57:42;99547.53;;;15.92;82.72
54592;BME280;40488;48.558;18.150;2023-05-22T01:00:16;99540.69;;;15.91;83.10
54592;BME280;40488;48.558;18.150;2023-05-22T01:02:46;99549.19;;;15.93;82.67
54592;BME280;40488;48.558;18.150;2023-05-22T01:05:16;99544.41;;;15.80;82.88
54592;BME280;40488;48.558;18.150;2023-05-22T01:07:46;99536.91;;;15.71;82.92
54592;BME280;40488;48.558;18.150;2023-05-22T01:10:15;99544.56;;;15.72;83.40
54592;BME280;40488;48.558;18.150;2023-05-22T01:12:54;99541.19;;;15.70;83.25
54592;BME280;40488;48.558;18.150;2023-05-22T01:15:33;99537.66;;;15.74;83.07
54592;BME280;40488;48.558;18.150;2023-05-22T01:18:09;99538.50;;;15.75;83.06
54592;BME280;40488;48.558;18.150;2023-05-22T01:20:51;99538.69;;;15.69;82.85
54592;BME280;40488;48.558;18.150;2023-05-22T01:26:39;99553.47;;;15.59;82.77
54592;BME280;40488;48.558;18.150;2023-05-22T01:29:23;99543.38;;;15.50;82.56
54592;BME280;40488;48.558;18.150;2023-05-22T01:31:59;99553.78;;;15.44;82.55
54592;BME280;40488;48.558;18.150;2023-05-22T01:34:31;99556.34;;;15.46;82.70
54592;BME280;40488;48.558;18.150;2023-05-22T01:37:04;99557.22;;;15.43;82.57
54592;BME280;40488;48.558;18.150;2023-05-22T01:39:33;99559.00;;;15.41;82.64
54592;BME280;40488;48.558;18.150;2023-05-22T01:42:04;99562.47;;;15.40;82.39
54592;BME280;40488;48.558;18.150;2023-05-22T01:44:33;99559.19;;;15.32;82.14
54592;BME280;40488;48.558;18.150;2023-05-22T01:47:04;99555.88;;;15.27;82.24
54592;BME280;40488;48.558;18.150;2023-05-22T01:49:35;99559.31;;;15.27;82.58
54592;BME280;40488;48.558;18.150;2023-05-22T01:52:10;99555.94;;;15.24;82.70
54592;BME280;40488;48.558;18.150;2023-05-22T01:54:45;99555.19;;;15.19;82.09
54592;BME280;40488;48.558;18.150;2023-05-22T01:57:18;99552.63;;;15.19;82.25
54592;BME280;40488;48.558;18.150;2023-05-22T01:59:53;99554.31;;;15.20;82.74
54592;BME280;40488;48.558;18.150;2023-05-22T02:02:26;99548.47;;;15.13;82.51
54592;BME280;40488;48.558;18.150;2023-05-22T02:05:09;99550.94;;;15.18;82.45
54592;BME280;40488;48.558;18.150;2023-05-22T02:07:41;99550.94;;;15.18;82.44
54592;BME280;40488;48.558;18.150;2023-05-22T02:10:12;99548.41;;;15.16;82.91
54592;BME280;40488;48.558;18.150;2023-05-22T02:12:43;99545.81;;;15.18;82.63
54592;BME280;40488;48.558;18.150;2023-05-22T02:15:12;99541.63;;;15.14;82.25
54592;BME280;40488;48.558;18.150;2023-05-22T02:17:42;99541.63;;;15.14;82.67
54592;BME280;40488;48.558;18.150;2023-05-22T02:20:13;99544.25;;;15.11;82.21
54592;BME280;40488;48.558;18.150;2023-05-22T02:22:45;99554.53;;;15.11;82.52
54592;BME280;40488;48.558;18.150;2023-05-22T02:25:15;99556.28;;;15.09;82.41
54592;BME280;40488;48.558;18.150;2023-05-22T02:27:46;99546.06;;;15.06;82.67
54592;BME280;40488;48.558;18.150;2023-05-22T02:30:16;99545.25;;;15.04;82.73
54592;BME280;40488;48.558;18.150;2023-05-22T02:32:50;99543.59;;;15.01;82.69
54592;BME280;40488;48.558;18.150;2023-05-22T02:35:20;99540.16;;;15.01;82.36
54592;BME280;40488;48.558;18.150;2023-05-22T02:37:50;99542.78;;;14.98;82.38
54592;BME280;40488;48.558;18.150;2023-05-22T02:40:19;99546.25;;;14.97;82.60
54592;BME280;40488;48.558;18.150;2023-05-22T02:42:49;99535.97;;;14.97;82.48
54592;BME280;40488;48.558;18.150;2023-05-22T02:45:18;99527.41;;;14.96;82.52
54592;BME280;40488;48.558;18.150;2023-05-22T02:47:47;99529.13;;;14.96;82.43
54592;BME280;40488;48.558;18.150;2023-05-22T02:50:17;99529.13;;;14.96;82.26
54592;BME280;40488;48.558;18.150;2023-05-22T02:52:46;99529.28;;;14.90;82.48
54592;BME280;40488;48.558;18.150;2023-05-22T02:55:15;99531.09;;;14.85;82.75
54592;BME280;40488;48.558;18.150;2023-05-22T02:57:44;99538.00;;;14.83;82.76
54592;BME280;40488;48.558;18.150;2023-05-22T03:00:13;99535.38;;;14.84;82.69
54592;BME280;40488;48.558;18.150;2023-05-22T03:02:43;99538.00;;;14.83;82.78
54592;BME280;40488;48.558;18.150;2023-05-22T03:05:12;99534.56;;;14.81;82.44
54592;BME280;40488;48.558;18.150;2023-05-22T03:07:45;99536.38;;;14.77;82.50
54592;BME280;40488;48.558;18.150;2023-05-22T03:10:15;99539.91;;;14.71;82.71
54592;BME280;40488;48.558;18.150;2023-05-22T03:12:44;99540.72;;;14.75;82.96
54592;BME280;40488;48.558;18.150;2023-05-22T03:15:15;99545.75;;;14.80;82.67
54592;BME280;40488;48.558;18.150;2023-05-22T03:17:44;99538.13;;;14.75;82.58
54592;BME280;40488;48.558;18.150;2023-05-22T03:20:14;99538.22;;;14.70;82.98
54592;BME280;40488;48.558;18.150;2023-05-22T03:22:45;99538.28;;;14.67;83.28
54592;BME280;40488;48.558;18.150;2023-05-22T03:25:14;99546.94;;;14.63;83.38
54592;BME280;40488;48.558;18.150;2023-05-22T03:27:43;99544.50;;;14.56;83.44
54592;BME280;40488;48.558;18.150;2023-05-22T03:30:14;99543.66;;;14.55;83.53
54592;BME280;40488;48.558;18.150;2023-05-22T03:32:52;99545.41;;;14.53;83.90
54592;BME280;40488;48.558;18.150;2023-05-22T03:35:22;99552.31;;;14.51;83.63
54592;BME280;40488;48.558;18.150;2023-05-22T03:37:53;99555.84;;;14.44;83.62
54592;BME280;40488;48.558;18.150;2023-05-22T03:40:22;99545.63;;;14.41;84.14
54592;BME280;40488;48.558;18.150;2023-05-22T03:42:51;99552.34;;;14.48;84.36
54592;BME280;40488;48.558;18.150;2023-05-22T03:45:20;99536.94;;;14.47;84.16
54592;BME280;40488;48.558;18.150;2023-05-22T03:47:50;99549.66;;;14.56;84.22
54592;BME280;40488;48.558;18.150;2023-05-22T03:50:19;99544.44;;;14.59;84.30
54592;BME280;40488;48.558;18.150;2023-05-22T03:52:48;99542.66;;;14.62;84.73
54592;BME280;40488;48.558;18.150;2023-05-22T03:55:18;99546.75;;;14.72;84.54
54592;BME280;40488;48.558;18.150;2023-05-22T03:57:47;99548.31;;;14.80;84.50
54592;BME280;40488;48.558;18.150;2023-05-22T04:00:17;99549.06;;;14.85;84.24
54592;BME280;40488;48.558;18.150;2023-05-22T04:02:47;99546.38;;;14.91;84.17
54592;BME280;40488;48.558;18.150;2023-05-22T04:05:17;99536.84;;;14.96;83.93
54592;BME280;40488;48.558;18.150;2023-05-22T04:07:46;99549.59;;;15.02;84.30
54592;BME280;40488;48.558;18.150;2023-05-22T04:10:14;99540.88;;;15.09;83.89
54592;BME280;40488;48.558;18.150;2023-05-22T04:12:45;99549.22;;;15.17;83.72
54592;BME280;40488;48.558;18.150;2023-05-22T04:15:14;99557.75;;;15.19;83.48
54592;BME280;40488;48.558;18.150;2023-05-22T04:17:43;99556.84;;;15.23;83.65
54592;BME280;40488;48.558;18.150;2023-05-22T04:20:13;99553.22;;;15.31;83.42
54592;BME280;40488;48.558;18.150;2023-05-22T04:22:41;99549.50;;;15.43;82.90
54592;BME280;40488;48.558;18.150;2023-05-22T04:25:12;99553.59;;;15.53;83.08
54592;BME280;40488;48.558;18.150;2023-05-22T04:27:41;99547.31;;;15.65;82.66
54592;BME280;40488;48.558;18.150;2023-05-22T04:30:12;99544.50;;;15.75;82.36
54592;BME280;40488;48.558;18.150;2023-05-22T04:32:43;99537.47;;;15.83;81.81
54592;BME280;40488;48.558;18.150;2023-05-22T04:35:12;99534.53;;;15.97;81.64
54592;BME280;40488;48.558;18.150;2023-05-22T04:37:45;99536.75;;;16.10;81.14
54592;BME280;40488;48.558;18.150;2023-05-22T04:40:14;99538.09;;;16.27;81.42
54592;BME280;40488;48.558;18.150;2023-05-22T04:42:42;99531.78;;;16.37;80.84
54592;BME280;40488;48.558;18.150;2023-05-22T04:45:14;99547.09;;;16.43;80.67
54592;BME280;40488;48.558;18.150;2023-05-22T04:47:45;99542.50;;;16.54;80.10
54592;BME280;40488;48.558;18.150;2023-05-22T04:50:14;99538.88;;;16.61;79.41
54592;BME280;40488;48.558;18.150;2023-05-22T04:52:43;99542.03;;;16.72;79.10
54592;BME280;40488;48.558;18.150;2023-05-22T04:55:14;99532.97;;;16.88;78.59
54592;BME280;40488;48.558;18.150;2023-05-22T04:57:43;99540.13;;;17.08;78.35
54592;BME280;40488;48.558;18.150;2023-05-22T05:00:16;99539.53;;;17.27;78.09
54592;BME280;40488;48.558;18.150;2023-05-22T05:02:46;99546.88;;;17.41;77.63
54592;BME280;40488;48.558;18.150;2023-05-22T05:05:14;99530.97;;;17.55;77.12
54592;BME280;40488;48.558;18.150;2023-05-22T05:07:46;99534.16;;;17.63;76.55
54592;BME280;40488;48.558;18.150;2023-05-22T05:10:18;99531.28;;;17.72;75.94
54592;BME280;40488;48.558;18.150;2023-05-22T05:12:47;99539.50;;;17.84;75.51
54592;BME280;40488;48.558;18.150;2023-05-22T05:15:19;99542.41;;;18.00;75.33
54592;BME280;40488;48.558;18.150;2023-05-22T05:17:49;99543.09;;;18.05;74.99
54592;BME280;40488;48.558;18.150;2023-05-22T05:20:19;99540.25;;;18.13;74.50
54592;BME280;40488;48.558;18.150;2023-05-22T05:22:48;99541.97;;;18.14;74.02
54592;BME280;40488;48.558;18.150;2023-05-22T05:25:17;99544.25;;;18.21;73.33
54592;BME280;40488;48.558;18.150;2023-05-22T05:27:46;99546.66;;;18.27;73.16
54592;BME280;40488;48.558;18.150;2023-05-22T05:30:20;99533.22;;;18.42;72.74
54592;BME280;40488;48.558;18.150;2023-05-22T05:33:00;99538.09;;;18.51;72.23
54592;BME280;40488;48.558;18.150;2023-05-22T05:35:38;99529.31;;;18.55;71.30
54592;BME280;40488;48.558;18.150;2023-05-22T05:38:11;99537.31;;;18.72;70.95
54592;BME280;40488;48.558;18.150;2023-05-22T05:40:43;99509.91;;;18.68;70.43
54592;BME280;40488;48.558;18.150;2023-05-22T05:43:12;99533.25;;;18.89;70.21
54592;BME280;40488;48.558;18.150;2023-05-22T05:45:45;99523.56;;;18.95;70.10
54592;BME280;40488;48.558;18.150;2023-05-22T05:48:15;99533.25;;;18.89;70.00
54592;BME280;40488;48.558;18.150;2023-05-22T05:50:47;99506.63;;;18.63;69.68
54592;BME280;40488;48.558;18.150;2023-05-22T05:53:16;99532.38;;;18.66;69.85
54592;BME280;40488;48.558;18.150;2023-05-22T05:55:53;99541.53;;;18.75;70.02
54592;BME280;40488;48.558;18.150;2023-05-22T05:58:22;99536.66;;;18.91;69.85
54592;BME280;40488;48.558;18.150;2023-05-22T06:01:08;99535.56;;;18.96;69.34
54592;BME280;40488;48.558;18.150;2023-05-22T06:03:38;99536.53;;;18.94;69.37
54592;BME280;40488;48.558;18.150;2023-05-22T06:06:13;99535.81;;;18.90;69.73
54592;BME280;40488;48.558;18.150;2023-05-22T06:08:55;99533.06;;;18.95;69.81
54592;BME280;40488;48.558;18.150;2023-05-22T06:11:30;99530.91;;;19.06;69.41
54592;BME280;40488;48.558;18.150;2023-05-22T06:14:01;99536.19;;;19.03;69.14
54592;BME280;40488;48.558;18.150;2023-05-22T06:16:32;99529.22;;;19.05;69.20
54592;BME280;40488;48.558;18.150;2023-05-22T06:19:01;99539.22;;;19.14;69.32
54592;BME280;40488;48.558;18.150;2023-05-22T06:21:31;99536.47;;;19.18;69.27
54592;BME280;40488;48.558;18.150;2023-05-22T06:24:00;99537.19;;;19.22;69.18
54592;BME280;40488;48.558;18.150;2023-05-22T06:26:30;99533.63;;;19.24;69.37
54592;BME280;40488;48.558;18.150;2023-05-22T06:28:58;99521.19;;;19.34;69.39
54592;BME280;40488;48.558;18.150;2023-05-22T06:31:32;99537.22;;;19.65;69.43
54592;BME280;40488;48.558;18.150;2023-05-22T06:34:04;99532.13;;;19.64;69.02
54592;BME280;40488;48.558;18.150;2023-05-22T06:36:34;99526.47;;;19.54;69.27
54592;BME280;40488;48.558;18.150;2023-05-22T06:39:04;99526.56;;;19.51;69.06
54592;BME280;40488;48.558;18.150;2023-05-22T06:41:44;99521.53;;;19.48;69.07
54592;BME280;40488;48.558;18.150;2023-05-22T06:44:13;99530.13;;;19.49;69.17
54592;BME280;40488;48.558;18.150;2023-05-22T06:46:44;99523.31;;;19.46;68.54
54592;BME280;40488;48.558;18.150;2023-05-22T06:49:19;99520.13;;;19.39;68.14
54592;BME280;40488;48.558;18.150;2023-05-22T06:51:51;99524.63;;;19.36;68.02
54592;BME280;40488;48.558;18.150;2023-05-22T06:54:20;99521.44;;;19.28;67.99
54592;BME280;40488;48.558;18.150;2023-05-22T06:56:55;99523.91;;;19.31;67.79
54592;BME280;40488;48.558;18.150;2023-05-22T06:59:29;99525.81;;;19.49;67.39
54592;BME280;40488;48.558;18.150;2023-05-22T07:02:00;99524.06;;;19.71;66.52
54592;BME280;40488;48.558;18.150;2023-05-22T07:04:48;99530.94;;;19.92;66.00
54592;BME280;40488;48.558;18.150;2023-05-22T07:07:30;99524.22;;;19.88;65.84
54592;BME280;40488;48.558;18.150;2023-05-22T07:09:59;99524.72;;;19.96;66.25
54592;BME280;40488;48.558;18.150;2023-05-22T07:12:29;99524.63;;;20.20;66.49
54592;BME280;40488;48.558;18.150;2023-05-22T07:14:58;99518.66;;;20.38;65.97
54592;BME280;40488;48.558;18.150;2023-05-22T07:17:32;99519.41;;;20.41;65.01
54592;BME280;40488;48.558;18.150;2023-05-22T07:20:01;99518.66;;;20.38;64.26
54592;BME280;40488;48.558;18.150;2023-05-22T07:22:33;99516.16;;;20.36;63.90
54592;BME280;40488;48.558;18.150;2023-05-22T07:25:03;99516.03;;;20.39;63.68
54592;BME280;40488;48.558;18.150;2023-05-22T07:27:32;99517.25;;;20.51;63.48
54592;BME280;40488;48.558;18.150;2023-05-22T07:30:03;99518.25;;;20.47;63.54
54592;BME280;40488;48.558;18.150;2023-05-22T07:32:34;99519.97;;;20.48;63.98
54592;BME280;40488;48.558;18.150;2023-05-22T07:35:04;99513.09;;;20.47;64.07
54592;BME280;40488;48.558;18.150;2023-05-22T07:37:33;99518.41;;;20.44;64.73
54592;BME280;40488;48.558;18.150;2023-05-22T07:40:03;99515.06;;;20.42;64.74
54592;BME280;40488;48.558;18.150;2023-05-22T07:42:35;99520.50;;;20.36;64.83
54592;BME280;40488;48.558;18.150;2023-05-22T07:45:07;99522.03;;;20.40;65.14
54592;BME280;40488;48.558;18.150;2023-05-22T07:47:38;99515.06;;;20.42;65.72
54592;BME280;40488;48.558;18.150;2023-05-22T07:50:08;99519.19;;;20.46;65.42
54592;BME280;40488;48.558;18.150;2023-05-22T07:52:40;99515.50;;;20.51;65.21
54592;BME280;40488;48.558;18.150;2023-05-22T07:55:09;99514.38;;;20.57;64.98
54592;BME280;40488;48.558;18.150;2023-05-22T07:57:40;99515.00;;;20.62;64.64
54592;BME280;40488;48.558;18.150;2023-05-22T08:00:27;99513.78;;;20.70;64.45
54592;BME280;40488;48.558;18.150;2023-05-22T08:02:57;99512.94;;;20.70;64.49
54592;BME280;40488;48.558;18.150;2023-05-22T08:05:26;99514.38;;;20.76;64.20
54592;BME280;40488;48.558;18.150;2023-05-22T08:07:55;99518.25;;;20.86;64.67
54592;BME280;40488;48.558;18.150;2023-05-22T08:10:24;99516.38;;;20.89;64.88
54592;BME280;40488;48.558;18.150;2023-05-22T08:13:03;99517.03;;;20.94;64.01
54592;BME280;40488;48.558;18.150;2023-05-22T08:15:33;99512.47;;;20.99;63.87
54592;BME280;40488;48.558;18.150;2023-05-22T08:18:04;99512.06;;;21.08;63.65
54592;BME280;40488;48.558;18.150;2023-05-22T08:20:33;99515.44;;;21.10;63.91
54592;BME280;40488;48.558;18.150;2023-05-22T08:23:02;99511.78;;;21.14;63.74
54592;BME280;40488;48.558;18.150;2023-05-22T08:25:30;99512.34;;;21.21;63.67
54592;BME280;40488;48.558;18.150;2023-05-22T08:27:59;99512.47;;;21.36;62.96
54592;BME280;40488;48.558;18.150;2023-05-22T08:30:28;99516.00;;;21.53;62.11
54592;BME280;40488;48.558;18.150;2023-05-22T08:32:57;99519.56;;;21.69;60.97
54592;BME280;40488;48.558;18.150;2023-05-22T08:35:27;99504.94;;;21.85;59.93
54592;BME280;40488;48.558;18.150;2023-05-22T08:37:57;99515.63;;;22.13;59.33
54592;BME280;40488;48.558;18.150;2023-05-22T08:40:33;99510.31;;;22.32;58.48
54592;BME280;40488;48.558;18.150;2023-05-22T08:43:04;99510.00;;;22.55;57.53
54592;BME280;40488;48.558;18.150;2023-05-22T08:45:33;99508.25;;;22.55;56.98
54592;BME280;40488;48.558;18.150;2023-05-22T08:48:03;99514.66;;;22.65;56.04
54592;BME280;40488;48.558;18.150;2023-05-22T08:50:37;99507.13;;;22.77;54.67
54592;BME280;40488;48.558;18.150;2023-05-22T08:53:11;99498.78;;;23.03;53.77
54592;BME280;40488;48.558;18.150;2023-05-22T08:55:41;99501.09;;;23.23;53.22
54592;BME280;40488;48.558;18.150;2023-05-22T08:58:10;99500.88;;;23.12;53.07
54592;BME280;40488;48.558;18.150;2023-05-22T09:00:39;99498.41;;;23.09;52.45
54592;BME280;40488;48.558;18.150;2023-05-22T09:03:09;99495.72;;;23.26;52.48
54592;BME280;40488;48.558;18.150;2023-05-22T09:05:43;99503.22;;;23.63;53.16
54592;BME280;40488;48.558;18.150;2023-05-22T09:08:12;99495.97;;;23.98;53.06
54592;BME280;40488;48.558;18.150;2023-05-22T09:10:47;99495.41;;;24.23;52.56
54592;BME280;40488;48.558;18.150;2023-05-22T09:13:26;99488.22;;;23.96;50.90
54592;BME280;40488;48.558;18.150;2023-05-22T09:16:02;99495.06;;;23.83;51.06
54592;BME280;40488;48.558;18.150;2023-05-22T09:18:35;99492.31;;;23.86;50.40
54592;BME280;40488;48.558;18.150;2023-05-22T09:21:07;99492.84;;;23.77;50.39
54592;BME280;40488;48.558;18.150;2023-05-22T09:23:39;99495.31;;;23.94;51.58
54592;BME280;40488;48.558;18.150;2023-05-22T09:26:08;99490.75;;;23.98;51.52
54592;BME280;40488;48.558;18.150;2023-05-22T09:28:37;99488.75;;;23.87;50.81
